createdAt,value
2017-01-14T00:00:04.236Z,941.71
2017-01-14T00:01:04.249Z,941.73
2017-01-14T00:02:04.260Z,941.65
2017-01-14T00:03:04.273Z,941.67
2017-01-14T00:04:04.285Z,941.62
2017-01-14T00:05:04.299Z,941.69
2017-01-14T00:06:04.311Z,941.63
2017-01-14T00:07:04.323Z,941.66
2017-01-14T00:08:04.335Z,941.62
2017-01-14T00:09:04.348Z,941.58
2017-01-14T00:10:04.360Z,941.56
2017-01-14T00:11:04.373Z,941.55
2017-01-14T00:12:04.386Z,941.51
2017-01-14T00:13:04.398Z,941.52
2017-01-14T00:14:04.411Z,941.54
2017-01-14T00:15:04.423Z,941.56
2017-01-14T00:16:04.450Z,941.56
2017-01-14T00:17:04.448Z,941.54
2017-01-14T00:18:04.461Z,941.55
2017-01-14T00:19:04.473Z,941.46
2017-01-14T00:20:04.486Z,941.51
2017-01-14T00:21:04.500Z,941.48
2017-01-14T00:22:04.511Z,941.46
2017-01-14T00:23:04.526Z,941.49
2017-01-14T00:24:04.536Z,941.46
2017-01-14T00:25:04.550Z,941.42
2017-01-14T00:26:04.560Z,941.39
2017-01-14T00:27:04.573Z,941.39
2017-01-14T00:28:04.586Z,941.38
2017-01-14T00:29:04.598Z,941.37
2017-01-14T00:30:04.611Z,941.38
2017-01-14T00:31:04.672Z,941.36
2017-01-14T00:32:04.636Z,941.34
2017-01-14T00:33:04.647Z,941.35
2017-01-14T00:34:04.659Z,941.35
2017-01-14T00:35:04.672Z,941.36
2017-01-14T00:36:04.684Z,941.32
2017-01-14T00:37:04.696Z,941.39
2017-01-14T00:38:04.709Z,941.35
2017-01-14T00:39:04.721Z,941.38
2017-01-14T00:40:04.733Z,941.36
2017-01-14T00:41:04.745Z,941.35
2017-01-14T00:42:04.758Z,941.36
2017-01-14T00:43:04.772Z,941.41
2017-01-14T00:44:04.784Z,941.41
2017-01-14T00:45:04.794Z,941.4
2017-01-14T00:46:04.807Z,941.41
2017-01-14T00:47:04.818Z,941.35
2017-01-14T00:48:04.831Z,941.43
2017-01-14T00:49:04.843Z,941.41
2017-01-14T00:50:04.856Z,941.37
2017-01-14T00:51:04.868Z,941.37
2017-01-14T00:52:04.880Z,941.38
2017-01-14T00:53:04.892Z,941.38
2017-01-14T00:54:04.904Z,941.39
2017-01-14T00:55:04.916Z,941.39
2017-01-14T00:56:04.928Z,941.41
2017-01-14T00:57:04.941Z,941.37
2017-01-14T00:58:04.954Z,941.41
2017-01-14T00:59:04.965Z,941.37
2017-01-14T01:00:04.977Z,941.41
2017-01-14T01:01:04.990Z,941.37
2017-01-14T01:02:05.002Z,941.36
2017-01-14T01:03:05.014Z,941.36
2017-01-14T01:04:05.025Z,941.32
2017-01-14T01:05:05.039Z,941.34
2017-01-14T01:06:05.060Z,941.4
2017-01-14T01:07:05.061Z,941.4
2017-01-14T01:08:05.124Z,941.41
2017-01-14T01:09:05.086Z,941.41
2017-01-14T01:10:05.100Z,941.42
2017-01-14T01:11:05.111Z,941.47
2017-01-14T01:12:05.123Z,941.42
2017-01-14T01:13:05.186Z,941.45
2017-01-14T01:14:05.148Z,941.42
2017-01-14T01:15:05.160Z,941.38
2017-01-14T01:16:05.172Z,941.41
2017-01-14T01:17:05.183Z,941.37
2017-01-14T01:18:05.195Z,941.34
2017-01-14T01:19:05.208Z,941.38
2017-01-14T01:20:05.219Z,941.37
2017-01-14T01:21:05.232Z,941.4
2017-01-14T01:22:05.244Z,941.43
2017-01-14T01:23:05.257Z,941.43
2017-01-14T01:24:05.271Z,941.37
2017-01-14T01:25:05.281Z,941.45
2017-01-14T01:26:05.294Z,941.4
2017-01-14T01:27:05.307Z,941.48
2017-01-14T01:28:05.317Z,941.47
2017-01-14T01:29:05.383Z,941.45
2017-01-14T01:30:05.343Z,941.47
2017-01-14T01:31:05.355Z,941.46
2017-01-14T01:32:05.366Z,941.51
2017-01-14T01:33:05.379Z,941.51
2017-01-14T01:34:05.441Z,941.49
2017-01-14T01:35:05.403Z,941.51
2017-01-14T01:36:05.414Z,941.5
2017-01-14T01:37:05.426Z,941.48
2017-01-14T01:38:05.440Z,941.49
2017-01-14T01:39:05.500Z,941.49
2017-01-14T01:40:05.464Z,941.5
2017-01-14T01:41:05.476Z,941.44
2017-01-14T01:42:05.488Z,941.47
2017-01-14T01:43:05.498Z,941.45
2017-01-14T01:44:05.511Z,941.42
2017-01-14T01:45:05.524Z,941.46
2017-01-14T01:46:05.535Z,941.43
2017-01-14T01:47:05.549Z,941.42
2017-01-14T01:48:05.560Z,941.37
2017-01-14T01:49:05.573Z,941.33
2017-01-14T01:50:05.583Z,941.39
2017-01-14T01:51:05.597Z,941.42
2017-01-14T01:52:05.609Z,941.4
2017-01-14T01:53:05.619Z,941.36
2017-01-14T01:54:05.632Z,941.35
2017-01-14T01:55:05.645Z,941.41
2017-01-14T01:56:05.668Z,941.4
2017-01-14T01:57:05.668Z,941.35
2017-01-14T01:58:05.680Z,941.33
2017-01-14T01:59:05.693Z,941.34
2017-01-14T02:00:05.705Z,941.31
2017-01-14T02:01:05.716Z,941.37
2017-01-14T02:02:05.728Z,941.37
2017-01-14T02:03:05.745Z,941.4
2017-01-14T02:04:05.753Z,941.33
2017-01-14T02:05:05.764Z,941.41
2017-01-14T02:06:05.777Z,941.46
2017-01-14T02:07:05.789Z,941.44
2017-01-14T02:08:05.801Z,941.46
2017-01-14T02:09:05.813Z,941.42
2017-01-14T02:10:05.876Z,941.45
2017-01-14T02:11:05.837Z,941.46
2017-01-14T02:12:05.850Z,941.4
2017-01-14T02:13:05.861Z,941.41
2017-01-14T02:14:05.873Z,941.42
2017-01-14T02:15:05.886Z,941.45
2017-01-14T02:16:05.897Z,941.39
2017-01-14T02:17:05.913Z,941.47
2017-01-14T02:18:05.921Z,941.38
2017-01-14T02:19:05.933Z,941.43
2017-01-14T02:20:05.946Z,941.35
2017-01-14T02:21:05.958Z,941.37
2017-01-14T02:22:05.970Z,941.39
2017-01-14T02:23:05.980Z,941.39
2017-01-14T02:24:05.993Z,941.31
2017-01-14T02:25:06.006Z,941.37
2017-01-14T02:26:06.017Z,941.32
2017-01-14T02:27:06.030Z,941.37
2017-01-14T02:28:06.042Z,941.39
2017-01-14T02:29:06.054Z,941.36
2017-01-14T02:30:06.114Z,941.32
2017-01-14T02:31:06.077Z,941.28
2017-01-14T02:32:06.089Z,941.32
2017-01-14T02:33:06.101Z,941.33
2017-01-14T02:34:06.112Z,941.29
2017-01-14T02:35:06.176Z,941.26
2017-01-14T02:36:06.137Z,941.31
2017-01-14T02:37:06.150Z,941.29
2017-01-14T02:38:06.160Z,941.23
2017-01-14T02:39:06.172Z,941.25
2017-01-14T02:40:06.283Z,941.23
2017-01-14T02:41:06.196Z,941.18
2017-01-14T02:42:06.208Z,941.23
2017-01-14T02:43:06.219Z,941.21
2017-01-14T02:44:06.232Z,941.22
2017-01-14T02:45:06.244Z,941.19
2017-01-14T02:46:06.280Z,941.14
2017-01-14T02:47:06.269Z,941.2
2017-01-14T02:48:06.304Z,941.15
2017-01-14T02:49:06.293Z,941.14
2017-01-14T02:50:06.371Z,941.16
2017-01-14T02:51:06.315Z,941.21
2017-01-14T02:52:06.342Z,941.23
2017-01-14T02:53:06.343Z,941.17
2017-01-14T02:54:06.352Z,941.19
2017-01-14T02:55:06.363Z,941.17
2017-01-14T02:56:06.474Z,941.1
2017-01-14T02:57:06.385Z,941.14
2017-01-14T02:58:06.399Z,941.11
2017-01-14T02:59:06.410Z,941.14
2017-01-14T03:00:06.423Z,941.09
2017-01-14T03:01:06.436Z,941.11
2017-01-14T03:02:06.447Z,941.09
2017-01-14T03:03:06.459Z,941.13
2017-01-14T03:04:06.472Z,941.05
2017-01-14T03:05:06.483Z,941.12
2017-01-14T03:06:06.494Z,941.16
2017-01-14T03:07:06.506Z,941.1
2017-01-14T03:08:06.518Z,941.08
2017-01-14T03:09:06.531Z,941.08
2017-01-14T03:10:06.543Z,941.1
2017-01-14T03:11:06.654Z,941.08
2017-01-14T03:12:06.565Z,941.11
2017-01-14T03:13:06.581Z,941.07
2017-01-14T03:14:06.590Z,941.07
2017-01-14T03:15:06.602Z,941.06
2017-01-14T03:16:06.616Z,941.05
2017-01-14T03:17:06.628Z,941.1
2017-01-14T03:18:06.639Z,941.03
2017-01-14T03:19:06.650Z,941.09
2017-01-14T03:20:06.661Z,941.12
2017-01-14T03:21:06.674Z,941.04
2017-01-14T03:22:06.686Z,941.01
2017-01-14T03:23:06.698Z,941.11
2017-01-14T03:24:06.711Z,941.04
2017-01-14T03:25:06.724Z,941.07
2017-01-14T03:26:06.733Z,941.08
2017-01-14T03:27:06.748Z,941.09
2017-01-14T03:28:06.759Z,941.08
2017-01-14T03:29:06.770Z,941.02
2017-01-14T03:30:06.783Z,941.08
2017-01-14T03:31:06.794Z,941.02
2017-01-14T03:32:06.805Z,941.08
2017-01-14T03:33:06.818Z,941.05
2017-01-14T03:34:06.831Z,941.04
2017-01-14T03:35:06.844Z,941.1
2017-01-14T03:36:06.855Z,941.04
2017-01-14T03:37:06.867Z,941.08
2017-01-14T03:38:06.879Z,941.04
2017-01-14T03:39:06.892Z,941.08
2017-01-14T03:40:06.902Z,941.03
2017-01-14T03:41:06.916Z,941.03
2017-01-14T03:42:06.928Z,941.02
2017-01-14T03:43:06.955Z,940.97
2017-01-14T03:44:06.952Z,940.98
2017-01-14T03:45:07.014Z,941.03
2017-01-14T03:46:06.977Z,940.96
2017-01-14T03:47:06.988Z,941
2017-01-14T03:48:07.000Z,941.01
2017-01-14T03:49:07.014Z,940.96
2017-01-14T03:50:07.076Z,940.98
2017-01-14T03:51:07.037Z,940.99
2017-01-14T03:52:07.049Z,941.07
2017-01-14T03:53:07.062Z,941.01
2017-01-14T03:54:07.074Z,940.99
2017-01-14T03:55:07.086Z,940.98
2017-01-14T03:56:07.099Z,941
2017-01-14T03:57:07.112Z,940.99
2017-01-14T03:58:07.123Z,941.04
2017-01-14T03:59:07.136Z,941.04
2017-01-14T04:00:07.148Z,941.09
2017-01-14T04:01:07.160Z,941.08
2017-01-14T04:02:07.173Z,941.05
2017-01-14T04:03:07.184Z,941.07
2017-01-14T04:04:07.198Z,941.09
2017-01-14T04:05:07.208Z,941.09
2017-01-14T04:06:07.221Z,941.01
2017-01-14T04:07:07.233Z,940.97
2017-01-14T04:08:07.247Z,940.96
2017-01-14T04:09:07.262Z,940.96
2017-01-14T04:10:07.270Z,940.92
2017-01-14T04:11:07.284Z,940.89
2017-01-14T04:12:07.295Z,940.9
2017-01-14T04:13:07.308Z,940.87
2017-01-14T04:14:07.319Z,940.89
2017-01-14T04:15:07.334Z,940.93
2017-01-14T04:16:07.345Z,940.93
2017-01-14T04:17:07.357Z,940.91
2017-01-14T04:18:07.370Z,940.92
2017-01-14T04:19:07.383Z,940.87
2017-01-14T04:20:07.395Z,940.88
2017-01-14T04:21:07.407Z,940.87
2017-01-14T04:22:07.420Z,940.89
2017-01-14T04:23:07.432Z,940.87
2017-01-14T04:24:07.444Z,940.88
2017-01-14T04:25:07.455Z,940.91
2017-01-14T04:26:07.469Z,940.91
2017-01-14T04:27:07.479Z,940.92
2017-01-14T04:28:07.494Z,941
2017-01-14T04:29:07.506Z,940.96
2017-01-14T04:30:07.519Z,940.94
2017-01-14T04:31:07.530Z,940.89
2017-01-14T04:32:07.543Z,940.86
2017-01-14T04:33:07.564Z,940.9
2017-01-14T04:34:07.568Z,940.86
2017-01-14T04:35:07.581Z,940.91
2017-01-14T04:36:07.594Z,940.9
2017-01-14T04:37:07.605Z,940.93
2017-01-14T04:38:07.618Z,940.96
2017-01-14T04:39:07.630Z,940.97
2017-01-14T04:40:07.643Z,940.9
2017-01-14T04:41:07.655Z,940.99
2017-01-14T04:42:07.668Z,940.95
2017-01-14T04:43:07.679Z,941.04
2017-01-14T04:44:07.693Z,941.05
2017-01-14T04:45:07.704Z,941.04
2017-01-14T04:46:07.717Z,941.08
2017-01-14T04:47:07.792Z,941.16
2017-01-14T04:48:07.741Z,941.16
2017-01-14T04:49:07.754Z,941.11
2017-01-14T04:50:07.765Z,941.09
2017-01-14T04:51:07.779Z,941.12
2017-01-14T04:52:07.843Z,941.12
2017-01-14T04:53:07.803Z,941.14
2017-01-14T04:54:07.816Z,941.17
2017-01-14T04:55:07.829Z,941.15
2017-01-14T04:56:07.840Z,941.22
2017-01-14T04:57:07.853Z,941.26
2017-01-14T04:58:07.865Z,941.22
2017-01-14T04:59:07.878Z,941.17
2017-01-14T05:00:07.888Z,941.2
2017-01-14T05:01:07.902Z,941.19
2017-01-14T05:02:07.979Z,941.22
2017-01-14T05:03:07.927Z,941.2
2017-01-14T05:04:07.938Z,941.25
2017-01-14T05:05:07.950Z,941.22
2017-01-14T05:06:07.963Z,941.16
2017-01-14T05:07:07.973Z,941.2
2017-01-14T05:08:07.987Z,941.29
2017-01-14T05:09:07.999Z,941.32
2017-01-14T05:10:08.011Z,941.37
2017-01-14T05:11:08.021Z,941.31
2017-01-14T05:12:08.035Z,941.27
2017-01-14T05:13:08.046Z,941.28
2017-01-14T05:14:08.058Z,941.26
2017-01-14T05:15:08.071Z,941.33
2017-01-14T05:16:08.084Z,941.35
2017-01-14T05:17:08.094Z,941.33
2017-01-14T05:18:08.107Z,941.38
2017-01-14T05:19:08.220Z,941.37
2017-01-14T05:20:08.132Z,941.32
2017-01-14T05:21:08.144Z,941.43
2017-01-14T05:22:08.155Z,941.35
2017-01-14T05:23:08.176Z,941.39
2017-01-14T05:24:08.180Z,941.36
2017-01-14T05:25:08.191Z,941.42
2017-01-14T05:26:08.203Z,941.4
2017-01-14T05:27:08.216Z,941.41
2017-01-14T05:28:08.228Z,941.44
2017-01-14T05:29:08.240Z,941.42
2017-01-14T05:30:08.255Z,941.44
2017-01-14T05:31:08.264Z,941.41
2017-01-14T05:32:08.277Z,941.49
2017-01-14T05:33:08.288Z,941.46
2017-01-14T05:34:08.301Z,941.5
2017-01-14T05:35:08.313Z,941.5
2017-01-14T05:36:08.325Z,941.53
2017-01-14T05:37:08.336Z,941.51
2017-01-14T05:38:08.348Z,941.54
2017-01-14T05:39:08.361Z,941.56
2017-01-14T05:40:08.424Z,941.59
2017-01-14T05:41:08.385Z,941.58
2017-01-14T05:42:08.400Z,941.61
2017-01-14T05:43:08.410Z,941.54
2017-01-14T05:44:08.421Z,941.6
2017-01-14T05:45:08.434Z,941.61
2017-01-14T05:46:08.447Z,941.68
2017-01-14T05:47:08.459Z,941.66
2017-01-14T05:48:08.470Z,941.67
2017-01-14T05:49:08.482Z,941.7
2017-01-14T05:50:08.495Z,941.68
2017-01-14T05:51:08.507Z,941.72
2017-01-14T05:52:08.520Z,941.77
2017-01-14T05:53:08.532Z,941.74
2017-01-14T05:54:08.544Z,941.73
2017-01-14T05:55:08.560Z,941.76
2017-01-14T05:56:08.568Z,941.79
2017-01-14T05:57:08.581Z,941.75
2017-01-14T05:58:08.594Z,941.75
2017-01-14T05:59:08.606Z,941.79
2017-01-14T06:00:08.617Z,941.78
2017-01-14T06:01:08.630Z,941.85
2017-01-14T06:02:08.643Z,941.86
2017-01-14T06:03:08.654Z,941.86
2017-01-14T06:04:08.667Z,941.83
2017-01-14T06:05:08.679Z,941.82
2017-01-14T06:06:08.690Z,941.89
2017-01-14T06:07:08.803Z,941.88
2017-01-14T06:08:08.717Z,941.88
2017-01-14T06:09:08.729Z,942.01
2017-01-14T06:10:08.740Z,941.96
2017-01-14T06:11:08.754Z,941.97
2017-01-14T06:12:08.767Z,941.93
2017-01-14T06:13:08.787Z,942.03
2017-01-14T06:14:08.791Z,941.94
2017-01-14T06:15:08.803Z,941.97
2017-01-14T06:16:08.816Z,941.98
2017-01-14T06:17:08.826Z,941.94
2017-01-14T06:18:08.839Z,941.99
2017-01-14T06:19:08.852Z,941.99
2017-01-14T06:20:08.864Z,941.97
2017-01-14T06:21:08.876Z,942
2017-01-14T06:22:08.989Z,942.04
2017-01-14T06:23:08.902Z,942.07
2017-01-14T06:24:08.914Z,942.12
2017-01-14T06:25:08.926Z,942.11
2017-01-14T06:26:08.937Z,942.11
2017-01-14T06:27:08.951Z,942.13
2017-01-14T06:28:08.963Z,942.16
2017-01-14T06:29:08.975Z,942.16
2017-01-14T06:30:08.988Z,942.11
2017-01-14T06:31:09.000Z,942.1
2017-01-14T06:32:09.011Z,942.15
2017-01-14T06:33:09.025Z,942.15
2017-01-14T06:34:09.038Z,942.16
2017-01-14T06:35:09.049Z,942.17
2017-01-14T06:36:09.062Z,942.22
2017-01-14T06:37:09.075Z,942.22
2017-01-14T06:38:09.086Z,942.24
2017-01-14T06:39:09.098Z,942.2
2017-01-14T06:40:09.111Z,942.21
2017-01-14T06:41:09.124Z,942.25
2017-01-14T06:42:09.135Z,942.27
2017-01-14T06:43:09.149Z,942.3
2017-01-14T06:44:09.161Z,942.3
2017-01-14T06:45:09.174Z,942.27
2017-01-14T06:46:09.186Z,942.32
2017-01-14T06:47:09.198Z,942.3
2017-01-14T06:48:09.210Z,942.3
2017-01-14T06:49:09.226Z,942.31
2017-01-14T06:50:09.236Z,942.31
2017-01-14T06:51:09.249Z,942.33
2017-01-14T06:52:09.262Z,942.38
2017-01-14T06:53:09.274Z,942.35
2017-01-14T06:54:09.286Z,942.4
2017-01-14T06:55:09.299Z,942.44
2017-01-14T06:56:09.330Z,942.41
2017-01-14T06:57:09.325Z,942.42
2017-01-14T06:58:09.337Z,942.43
2017-01-14T06:59:09.349Z,942.46
2017-01-14T07:00:09.362Z,942.5
2017-01-14T07:01:09.375Z,942.48
2017-01-14T07:02:09.388Z,942.53
2017-01-14T07:03:09.401Z,942.49
2017-01-14T07:04:09.412Z,942.54
2017-01-14T07:05:09.425Z,942.57
2017-01-14T07:06:09.438Z,942.53
2017-01-14T07:07:09.451Z,942.6
2017-01-14T07:08:09.462Z,942.57
2017-01-14T07:09:09.476Z,942.57
2017-01-14T07:10:09.489Z,942.64
2017-01-14T07:11:09.503Z,942.6
2017-01-14T07:12:09.515Z,942.57
2017-01-14T07:13:09.526Z,942.61
2017-01-14T07:14:09.539Z,942.65
2017-01-14T07:15:09.551Z,942.74
2017-01-14T07:16:09.565Z,942.7
2017-01-14T07:17:09.578Z,942.8
2017-01-14T07:18:09.591Z,942.77
2017-01-14T07:19:09.603Z,942.8
2017-01-14T07:20:09.616Z,942.78
2017-01-14T07:21:09.630Z,942.83
2017-01-14T07:22:09.643Z,942.83
2017-01-14T07:23:09.655Z,942.9
2017-01-14T07:24:09.669Z,942.8
2017-01-14T07:25:09.680Z,942.93
2017-01-14T07:26:09.694Z,942.91
2017-01-14T07:27:09.705Z,942.92
2017-01-14T07:28:09.772Z,943
2017-01-14T07:29:09.733Z,942.95
2017-01-14T07:30:09.746Z,942.93
2017-01-14T07:31:09.758Z,942.91
2017-01-14T07:32:09.771Z,942.91
2017-01-14T07:33:09.835Z,942.95
2017-01-14T07:34:09.797Z,942.97
2017-01-14T07:35:09.810Z,942.97
2017-01-14T07:36:09.824Z,943.08
2017-01-14T07:37:09.837Z,943.09
2017-01-14T07:38:09.899Z,943.07
2017-01-14T07:39:09.874Z,943.07
2017-01-14T07:40:09.876Z,943.07
2017-01-14T07:41:09.888Z,943.05
2017-01-14T07:42:09.900Z,943.03
2017-01-14T07:43:10.015Z,943.07
2017-01-14T07:44:09.928Z,943.1
2017-01-14T07:45:09.941Z,943.16
2017-01-14T07:46:09.953Z,943.24
2017-01-14T07:47:09.968Z,943.25
2017-01-14T07:48:10.029Z,943.14
2017-01-14T07:49:09.993Z,943.27
2017-01-14T07:50:10.006Z,943.24
2017-01-14T07:51:10.022Z,943.26
2017-01-14T07:52:10.034Z,943.33
2017-01-14T07:53:10.096Z,943.25
2017-01-14T07:54:10.059Z,943.32
2017-01-14T07:55:10.071Z,943.32
2017-01-14T07:56:10.085Z,943.34
2017-01-14T07:57:10.098Z,943.35
2017-01-14T07:58:10.212Z,943.39
2017-01-14T07:59:10.124Z,943.4
2017-01-14T08:00:10.137Z,943.44
2017-01-14T08:01:10.149Z,943.41
2017-01-14T08:02:10.163Z,943.41
2017-01-14T08:03:10.226Z,943.45
2017-01-14T08:04:10.190Z,943.49
2017-01-14T08:05:10.202Z,943.52
2017-01-14T08:06:10.215Z,943.53
2017-01-14T08:07:10.228Z,943.54
2017-01-14T08:08:10.292Z,943.57
2017-01-14T08:09:10.255Z,943.61
2017-01-14T08:10:10.266Z,943.6
2017-01-14T08:11:10.282Z,943.62
2017-01-14T08:12:10.294Z,943.65
2017-01-14T08:13:10.405Z,943.71
2017-01-14T08:14:10.318Z,943.73
2017-01-14T08:15:10.355Z,943.72
2017-01-14T08:16:10.345Z,943.73
2017-01-14T08:17:10.358Z,943.79
2017-01-14T08:18:10.371Z,943.75
2017-01-14T08:19:10.384Z,943.85
2017-01-14T08:20:10.398Z,943.77
2017-01-14T08:21:10.410Z,943.83
2017-01-14T08:22:10.423Z,943.84
2017-01-14T08:23:10.436Z,943.8
2017-01-14T08:24:10.450Z,943.87
2017-01-14T08:25:10.463Z,943.86
2017-01-14T08:26:10.476Z,943.87
2017-01-14T08:27:10.490Z,943.86
2017-01-14T08:28:10.501Z,943.85
2017-01-14T08:29:10.614Z,943.9
2017-01-14T08:30:10.528Z,943.92
2017-01-14T08:31:10.541Z,943.98
2017-01-14T08:32:10.560Z,943.99
2017-01-14T08:33:10.567Z,943.99
2017-01-14T08:34:10.580Z,944.01
2017-01-14T08:35:10.592Z,943.98
2017-01-14T08:36:10.605Z,943.98
2017-01-14T08:37:10.620Z,944.07
2017-01-14T08:38:10.632Z,944.06
2017-01-14T08:39:10.645Z,944.01
2017-01-14T08:40:10.658Z,944.05
2017-01-14T08:41:10.671Z,944.1
2017-01-14T08:42:10.687Z,944.07
2017-01-14T08:43:10.699Z,944.01
2017-01-14T08:44:10.710Z,944.09
2017-01-14T08:45:10.723Z,944.11
2017-01-14T08:46:10.737Z,944.01
2017-01-14T08:47:10.765Z,944.09
2017-01-14T08:48:10.763Z,944.1
2017-01-14T08:49:10.775Z,944.11
2017-01-14T08:50:10.837Z,944.06
2017-01-14T08:51:10.802Z,944.15
2017-01-14T08:52:10.815Z,944.11
2017-01-14T08:53:10.828Z,944.11
2017-01-14T08:54:10.841Z,944.14
2017-01-14T08:55:10.854Z,944.14
2017-01-14T08:56:10.868Z,944.16
2017-01-14T08:57:10.881Z,944.12
2017-01-14T08:58:10.902Z,944.14
2017-01-14T08:59:10.908Z,944.15
2017-01-14T09:00:10.920Z,944.24
2017-01-14T09:01:10.933Z,944.23
2017-01-14T09:02:10.946Z,944.18
2017-01-14T09:03:10.960Z,944.22
2017-01-14T09:04:10.974Z,944.21
2017-01-14T09:05:10.986Z,944.17
2017-01-14T09:06:10.998Z,944.17
2017-01-14T09:07:11.013Z,944.21
2017-01-14T09:08:11.026Z,944.17
2017-01-14T09:09:11.038Z,944.17
2017-01-14T09:10:11.052Z,944.19
2017-01-14T09:11:11.064Z,944.17
2017-01-14T09:12:11.077Z,944.25
2017-01-14T09:13:11.090Z,944.25
2017-01-14T09:14:11.105Z,944.22
2017-01-14T09:15:11.118Z,944.23
2017-01-14T09:16:11.130Z,944.28
2017-01-14T09:17:11.143Z,944.24
2017-01-14T09:18:11.157Z,944.22
2017-01-14T09:19:11.172Z,944.27
2017-01-14T09:20:11.184Z,944.28
2017-01-14T09:21:11.198Z,944.3
2017-01-14T09:22:11.211Z,944.29
2017-01-14T09:23:11.224Z,944.3
2017-01-14T09:24:11.237Z,944.35
2017-01-14T09:25:11.251Z,944.31
2017-01-14T09:26:11.263Z,944.35
2017-01-14T09:27:11.277Z,944.37
2017-01-14T09:28:11.290Z,944.33
2017-01-14T09:29:11.302Z,944.35
2017-01-14T09:30:11.316Z,944.34
2017-01-14T09:31:11.431Z,944.32
2017-01-14T09:32:11.345Z,944.38
2017-01-14T09:33:11.357Z,944.37
2017-01-14T09:34:11.378Z,944.46
2017-01-14T09:35:11.387Z,944.45
2017-01-14T09:36:11.396Z,944.5
2017-01-14T09:37:11.411Z,944.52
2017-01-14T09:38:11.423Z,944.53
2017-01-14T09:39:11.437Z,944.46
2017-01-14T09:40:11.451Z,944.51
2017-01-14T09:41:11.463Z,944.54
2017-01-14T09:42:11.476Z,944.51
2017-01-14T09:43:11.490Z,944.61
2017-01-14T09:44:11.502Z,944.62
2017-01-14T09:45:11.515Z,944.58
2017-01-14T09:46:11.529Z,944.66
2017-01-14T09:47:11.545Z,944.67
2017-01-14T09:48:11.558Z,944.66
2017-01-14T09:49:11.676Z,944.68
2017-01-14T09:50:11.581Z,944.71
2017-01-14T09:51:11.598Z,944.78
2017-01-14T09:52:11.608Z,944.83
2017-01-14T09:53:11.672Z,944.81
2017-01-14T09:54:11.635Z,944.79
2017-01-14T09:55:11.649Z,944.87
2017-01-14T09:56:11.661Z,944.91
2017-01-14T09:57:11.674Z,944.95
2017-01-14T09:58:11.738Z,944.96
2017-01-14T09:59:11.700Z,944.98
2017-01-14T10:00:11.715Z,944.99
2017-01-14T10:01:11.726Z,944.98
2017-01-14T10:02:11.741Z,945.01
2017-01-14T10:03:11.753Z,944.98
2017-01-14T10:04:11.772Z,944.85
2017-01-14T10:05:11.782Z,945.21
2017-01-14T10:06:11.822Z,945.08
2017-01-14T10:07:11.804Z,945.13
2017-01-14T10:08:11.818Z,945.11
2017-01-14T10:09:11.831Z,945.09
2017-01-14T10:10:11.857Z,945.1
2017-01-14T10:11:11.856Z,945.12
2017-01-14T10:12:11.868Z,945.2
2017-01-14T10:13:11.883Z,945.11
2017-01-14T10:14:11.894Z,945.18
2017-01-14T10:15:11.908Z,945.15
2017-01-14T10:16:11.920Z,945.13
2017-01-14T10:17:11.939Z,945.15
2017-01-14T10:18:11.945Z,945.24
2017-01-14T10:19:11.959Z,945.29
2017-01-14T10:20:11.972Z,945.28
2017-01-14T10:21:11.985Z,945.29
2017-01-14T10:22:11.998Z,945.22
2017-01-14T10:23:12.008Z,945.24
2017-01-14T10:24:12.023Z,945.32
2017-01-14T10:25:12.034Z,945.28
2017-01-14T10:26:12.047Z,945.31
2017-01-14T10:27:12.061Z,945.26
2017-01-14T10:28:12.074Z,945.28
2017-01-14T10:29:12.086Z,945.38
2017-01-14T10:30:12.099Z,945.4
2017-01-14T10:31:12.110Z,945.43
2017-01-14T10:32:12.124Z,945.49
2017-01-14T10:33:12.138Z,945.45
2017-01-14T10:34:12.149Z,945.58
2017-01-14T10:35:12.162Z,945.53
2017-01-14T10:36:12.175Z,945.52
2017-01-14T10:37:12.187Z,945.51
2017-01-14T10:38:12.199Z,945.54
2017-01-14T10:39:12.213Z,945.61
2017-01-14T10:40:12.223Z,945.59
2017-01-14T10:41:12.238Z,945.53
2017-01-14T10:42:12.249Z,945.62
2017-01-14T10:43:12.263Z,945.59
2017-01-14T10:44:12.276Z,945.59
2017-01-14T10:45:12.290Z,945.58
2017-01-14T10:46:12.301Z,945.59
2017-01-14T10:47:12.313Z,945.59
2017-01-14T10:48:12.326Z,945.65
2017-01-14T10:49:12.339Z,945.64
2017-01-14T10:50:12.402Z,945.63
2017-01-14T10:51:12.364Z,945.66
2017-01-14T10:52:12.377Z,945.64
2017-01-14T10:53:12.404Z,945.66
2017-01-14T10:54:12.403Z,945.66
2017-01-14T10:55:12.468Z,945.71
2017-01-14T10:56:12.429Z,945.66
2017-01-14T10:57:12.442Z,945.74
2017-01-14T10:58:12.454Z,945.6
2017-01-14T10:59:12.468Z,945.65
2017-01-14T11:00:12.531Z,945.61
2017-01-14T11:01:12.493Z,945.62
2017-01-14T11:02:12.506Z,945.66
2017-01-14T11:03:12.518Z,945.68
2017-01-14T11:04:12.541Z,945.67
2017-01-14T11:05:12.593Z,945.65
2017-01-14T11:06:12.557Z,945.7
2017-01-14T11:07:12.569Z,945.75
2017-01-14T11:08:12.583Z,945.76
2017-01-14T11:09:12.601Z,945.75
2017-01-14T11:10:12.611Z,945.75
2017-01-14T11:11:12.622Z,945.8
2017-01-14T11:12:12.668Z,945.86
2017-01-14T11:13:12.646Z,945.74
2017-01-14T11:14:12.661Z,945.83
2017-01-14T11:15:12.674Z,945.77
2017-01-14T11:16:12.685Z,945.75
2017-01-14T11:17:12.700Z,945.82
2017-01-14T11:18:12.712Z,945.84
2017-01-14T11:19:12.725Z,945.74
2017-01-14T11:20:12.738Z,945.9
2017-01-14T11:21:12.750Z,945.87
2017-01-14T11:22:12.764Z,945.84
2017-01-14T11:23:12.777Z,945.83
2017-01-14T11:24:12.788Z,945.87
2017-01-14T11:25:12.803Z,945.89
2017-01-14T11:26:12.815Z,945.82
2017-01-14T11:27:12.828Z,945.97
2017-01-14T11:28:12.840Z,945.91
2017-01-14T11:29:12.855Z,945.94
2017-01-14T11:30:12.867Z,945.97
2017-01-14T11:31:12.880Z,945.96
2017-01-14T11:32:12.893Z,945.99
2017-01-14T11:33:12.908Z,945.96
2017-01-14T11:34:12.920Z,945.93
2017-01-14T11:35:12.933Z,946.01
2017-01-14T11:36:12.949Z,945.92
2017-01-14T11:37:12.959Z,945.93
2017-01-14T11:38:12.971Z,945.94
2017-01-14T11:39:12.985Z,945.98
2017-01-14T11:40:12.998Z,945.94
2017-01-14T11:41:13.012Z,946.02
2017-01-14T11:42:13.024Z,945.97
2017-01-14T11:43:13.039Z,946.01
2017-01-14T11:44:13.051Z,946.05
2017-01-14T11:45:13.066Z,946
2017-01-14T11:46:13.078Z,946.04
2017-01-14T11:47:13.092Z,946.04
2017-01-14T11:48:13.105Z,946.07
2017-01-14T11:49:13.118Z,946.02
2017-01-14T11:50:13.131Z,946.09
2017-01-14T11:51:13.145Z,946.08
2017-01-14T11:52:13.157Z,946.13
2017-01-14T11:53:13.169Z,946.18
2017-01-14T11:54:13.185Z,946.1
2017-01-14T11:55:13.198Z,946.16
2017-01-14T11:56:13.212Z,946.15
2017-01-14T11:57:13.226Z,946.13
2017-01-14T11:58:13.238Z,946.14
2017-01-14T11:59:13.252Z,946.12
2017-01-14T12:00:13.266Z,946.17
2017-01-14T12:01:13.277Z,946.19
2017-01-14T12:02:13.292Z,946.19
2017-01-14T12:03:13.306Z,946.1
2017-01-14T12:04:13.319Z,946.09
2017-01-14T12:05:13.333Z,946.17
2017-01-14T12:06:13.347Z,946.15
2017-01-14T12:07:13.361Z,946.16
2017-01-14T12:08:13.373Z,946.12
2017-01-14T12:09:13.387Z,946.17
2017-01-14T12:10:13.401Z,946.08
2017-01-14T12:11:13.413Z,946.15
2017-01-14T12:12:13.429Z,946.16
2017-01-14T12:13:13.442Z,946.15
2017-01-14T12:14:13.456Z,946.14
2017-01-14T12:15:13.469Z,946.15
2017-01-14T12:16:13.483Z,946.18
2017-01-14T12:17:13.496Z,946.19
2017-01-14T12:18:13.561Z,946.17
2017-01-14T12:19:13.524Z,946.15
2017-01-14T12:20:13.538Z,946.19
2017-01-14T12:21:13.550Z,946.22
2017-01-14T12:22:13.565Z,946.21
2017-01-14T12:23:13.578Z,946.26
2017-01-14T12:24:13.593Z,946.24
2017-01-14T12:25:13.606Z,946.3
2017-01-14T12:26:13.620Z,946.3
2017-01-14T12:27:13.632Z,946.31
2017-01-14T12:28:13.647Z,946.33
2017-01-14T12:29:13.673Z,946.36
2017-01-14T12:30:13.675Z,946.32
2017-01-14T12:31:13.690Z,946.27